sensor_id;sensor_type;location;lat;lon;timestamp;temperature;humidity
11583;DHT22;34299;50.820;4.548;2023-10-19T00:00:20;15.70;99.90
11583;DHT22;34299;50.820;4.548;2023-10-19T00:02:49;15.80;99.90
11583;DHT22;34299;50.820;4.548;2023-10-19T00:05:19;15.80;99.90
11583;DHT22;34299;50.820;4.548;2023-10-19T00:07:46;15.80;99.90
11583;DHT22;34299;50.820;4.548;2023-10-19T00:10:12;15.80;99.90
11583;DHT22;34299;50.820;4.548;2023-10-19T00:12:42;15.70;99.90
11583;DHT22;34299;50.820;4.548;2023-10-19T00:15:10;15.80;99.90
11583;DHT22;34299;50.820;4.548;2023-10-19T00:17:39;15.80;99.90
11583;DHT22;34299;50.820;4.548;2023-10-19T00:20:10;15.90;99.90
11583;DHT22;34299;50.820;4.548;2023-10-19T00:22:52;16.00;99.90
11583;DHT22;34299;50.820;4.548;2023-10-19T00:25:20;15.90;99.90
11583;DHT22;34299;50.820;4.548;2023-10-19T00:27:49;15.70;99.90
11583;DHT22;34299;50.820;4.548;2023-10-19T00:30:16;15.70;99.90
11583;DHT22;34299;50.820;4.548;2023-10-19T00:32:46;15.70;99.90
11583;DHT22;34299;50.820;4.548;2023-10-19T00:35:14;15.90;99.90
11583;DHT22;34299;50.820;4.548;2023-10-19T00:37:55;15.80;99.90
11583;DHT22;34299;50.820;4.548;2023-10-19T00:40:43;15.70;99.90
11583;DHT22;34299;50.820;4.548;2023-10-19T00:43:13;15.70;99.90
11583;DHT22;34299;50.820;4.548;2023-10-19T00:45:43;15.80;99.90
11583;DHT22;34299;50.820;4.548;2023-10-19T00:48:12;15.60;99.90
11583;DHT22;34299;50.820;4.548;2023-10-19T00:50:43;15.80;99.90
11583;DHT22;34299;50.820;4.548;2023-10-19T00:53:15;15.70;99.90
11583;DHT22;34299;50.820;4.548;2023-10-19T00:55:44;15.70;99.90
11583;DHT22;34299;50.820;4.548;2023-10-19T00:58:12;15.70;99.90
11583;DHT22;34299;50.820;4.548;2023-10-19T01:00:43;15.60;99.90
11583;DHT22;34299;50.820;4.548;2023-10-19T01:03:11;15.60;99.90
11583;DHT22;34299;50.820;4.548;2023-10-19T01:05:44;15.60;99.90
11583;DHT22;34299;50.820;4.548;2023-10-19T01:08:16;15.60;99.90
11583;DHT22;34299;50.820;4.548;2023-10-19T01:10:51;15.40;99.90
11583;DHT22;34299;50.820;4.548;2023-10-19T01:13:19;15.60;99.90
11583;DHT22;34299;50.820;4.548;2023-10-19T01:15:53;15.70;99.90
11583;DHT22;34299;50.820;4.548;2023-10-19T01:18:21;15.70;99.90
11583;DHT22;34299;50.820;4.548;2023-10-19T01:21:00;15.70;99.90
11583;DHT22;34299;50.820;4.548;2023-10-19T01:23:33;15.70;99.90
11583;DHT22;34299;50.820;4.548;2023-10-19T01:26:01;15.60;99.90
11583;DHT22;34299;50.820;4.548;2023-10-19T01:28:34;15.60;99.90
11583;DHT22;34299;50.820;4.548;2023-10-19T01:31:10;15.70;99.90
11583;DHT22;34299;50.820;4.548;2023-10-19T01:33:41;15.60;99.90
11583;DHT22;34299;50.820;4.548;2023-10-19T01:36:10;15.60;99.90
11583;DHT22;34299;50.820;4.548;2023-10-19T01:38:39;15.60;99.90
11583;DHT22;34299;50.820;4.548;2023-10-19T01:41:07;15.50;99.90
11583;DHT22;34299;50.820;4.548;2023-10-19T01:43:40;15.60;99.90
11583;DHT22;34299;50.820;4.548;2023-10-19T01:46:08;15.50;99.90
11583;DHT22;34299;50.820;4.548;2023-10-19T01:48:38;15.50;99.90
11583;DHT22;34299;50.820;4.548;2023-10-19T01:51:07;15.50;99.90
11583;DHT22;34299;50.820;4.548;2023-10-19T01:53:38;15.50;99.90
11583;DHT22;34299;50.820;4.548;2023-10-19T01:56:08;15.50;99.90
11583;DHT22;34299;50.820;4.548;2023-10-19T01:58:35;15.50;99.90
11583;DHT22;34299;50.820;4.548;2023-10-19T02:01:03;15.50;99.90
11583;DHT22;34299;50.820;4.548;2023-10-19T02:03:34;15.40;99.90
11583;DHT22;34299;50.820;4.548;2023-10-19T02:06:01;15.50;99.90
11583;DHT22;34299;50.820;4.548;2023-10-19T02:08:37;15.40;99.90
11583;DHT22;34299;50.820;4.548;2023-10-19T02:11:05;15.40;99.90
11583;DHT22;34299;50.820;4.548;2023-10-19T02:13:39;15.50;99.90
11583;DHT22;34299;50.820;4.548;2023-10-19T02:16:06;15.50;99.90
11583;DHT22;34299;50.820;4.548;2023-10-19T02:18:33;15.30;99.90
11583;DHT22;34299;50.820;4.548;2023-10-19T02:21:00;15.30;99.90
11583;DHT22;34299;50.820;4.548;2023-10-19T02:23:32;15.30;99.90
11583;DHT22;34299;50.820;4.548;2023-10-19T02:26:01;15.20;99.90
11583;DHT22;34299;50.820;4.548;2023-10-19T02:28:30;15.20;99.90
11583;DHT22;34299;50.820;4.548;2023-10-19T02:30:58;15.20;99.90
11583;DHT22;34299;50.820;4.548;2023-10-19T02:33:37;15.10;99.90
11583;DHT22;34299;50.820;4.548;2023-10-19T02:36:04;15.30;99.90
11583;DHT22;34299;50.820;4.548;2023-10-19T02:38:39;15.00;99.90
11583;DHT22;34299;50.820;4.548;2023-10-19T02:41:08;15.00;99.90
11583;DHT22;34299;50.820;4.548;2023-10-19T02:43:36;14.90;99.90
11583;DHT22;34299;50.820;4.548;2023-10-19T02:46:03;15.00;99.90
11583;DHT22;34299;50.820;4.548;2023-10-19T02:48:30;14.70;99.90
11583;DHT22;34299;50.820;4.548;2023-10-19T02:50:57;15.00;99.90
11583;DHT22;34299;50.820;4.548;2023-10-19T02:53:32;14.90;99.90
11583;DHT22;34299;50.820;4.548;2023-10-19T02:55:59;14.80;99.90
11583;DHT22;34299;50.820;4.548;2023-10-19T02:58:37;14.80;99.90
11583;DHT22;34299;50.820;4.548;2023-10-19T03:01:12;14.70;99.90
11583;DHT22;34299;50.820;4.548;2023-10-19T03:03:39;14.50;99.90
11583;DHT22;34299;50.820;4.548;2023-10-19T03:06:09;14.50;99.90
11583;DHT22;34299;50.820;4.548;2023-10-19T03:08:35;14.50;99.90
11583;DHT22;34299;50.820;4.548;2023-10-19T03:11:02;14.50;99.90
11583;DHT22;34299;50.820;4.548;2023-10-19T03:13:29;14.50;99.90
11583;DHT22;34299;50.820;4.548;2023-10-19T03:16:00;14.50;99.90
11583;DHT22;34299;50.820;4.548;2023-10-19T03:18:31;14.40;99.90
11583;DHT22;34299;50.820;4.548;2023-10-19T03:20:58;14.50;99.90
11583;DHT22;34299;50.820;4.548;2023-10-19T03:23:24;14.60;99.90
11583;DHT22;34299;50.820;4.548;2023-10-19T03:25:55;14.60;99.90
11583;DHT22;34299;50.820;4.548;2023-10-19T03:28:24;14.60;99.90
11583;DHT22;34299;50.820;4.548;2023-10-19T03:30:52;14.70;99.90
11583;DHT22;34299;50.820;4.548;2023-10-19T03:33:22;14.80;99.90
11583;DHT22;34299;50.820;4.548;2023-10-19T03:35:53;14.60;99.90
11583;DHT22;34299;50.820;4.548;2023-10-19T03:38:19;14.60;99.90
11583;DHT22;34299;50.820;4.548;2023-10-19T03:40:48;14.60;99.90
11583;DHT22;34299;50.820;4.548;2023-10-19T03:43:24;14.70;99.90
11583;DHT22;34299;50.820;4.548;2023-10-19T03:45:53;14.70;99.90
11583;DHT22;34299;50.820;4.548;2023-10-19T03:48:22;14.70;99.90
11583;DHT22;34299;50.820;4.548;2023-10-19T03:50:56;14.70;99.90
11583;DHT22;34299;50.820;4.548;2023-10-19T03:53:23;14.70;99.90
11583;DHT22;34299;50.820;4.548;2023-10-19T03:55:50;14.70;99.90
11583;DHT22;34299;50.820;4.548;2023-10-19T03:58:18;14.70;99.90
11583;DHT22;34299;50.820;4.548;2023-10-19T04:00:47;14.70;99.90
11583;DHT22;34299;50.820;4.548;2023-10-19T04:03:15;14.70;99.90
11583;DHT22;34299;50.820;4.548;2023-10-19T04:05:44;14.80;99.90
11583;DHT22;34299;50.820;4.548;2023-10-19T04:08:14;14.80;99.90
11583;DHT22;34299;50.820;4.548;2023-10-19T04:10:46;14.80;99.90
11583;DHT22;34299;50.820;4.548;2023-10-19T04:13:34;14.80;99.90
11583;DHT22;34299;50.820;4.548;2023-10-19T04:16:02;14.50;99.90
11583;DHT22;34299;50.820;4.548;2023-10-19T04:18:28;14.60;99.90
11583;DHT22;34299;50.820;4.548;2023-10-19T04:20:57;14.70;99.90
11583;DHT22;34299;50.820;4.548;2023-10-19T04:23:27;14.70;99.90
11583;DHT22;34299;50.820;4.548;2023-10-19T04:25:54;14.70;99.90
11583;DHT22;34299;50.820;4.548;2023-10-19T04:28:24;14.70;99.90
11583;DHT22;34299;50.820;4.548;2023-10-19T04:31:03;14.70;99.90
11583;DHT22;34299;50.820;4.548;2023-10-19T04:33:32;14.70;99.90
11583;DHT22;34299;50.820;4.548;2023-10-19T04:36:01;14.70;99.90
11583;DHT22;34299;50.820;4.548;2023-10-19T04:38:30;14.70;99.90
11583;DHT22;34299;50.820;4.548;2023-10-19T04:41:06;14.70;99.90
11583;DHT22;34299;50.820;4.548;2023-10-19T04:43:36;14.80;99.90
11583;DHT22;34299;50.820;4.548;2023-10-19T04:46:08;15.00;99.90
11583;DHT22;34299;50.820;4.548;2023-10-19T04:48:37;14.80;99.90
11583;DHT22;34299;50.820;4.548;2023-10-19T04:51:07;14.70;99.90
11583;DHT22;34299;50.820;4.548;2023-10-19T04:53:35;14.80;99.90
11583;DHT22;34299;50.820;4.548;2023-10-19T04:56:03;14.80;99.90
11583;DHT22;34299;50.820;4.548;2023-10-19T04:58:30;14.80;99.90
11583;DHT22;34299;50.820;4.548;2023-10-19T05:00:57;14.80;99.90
11583;DHT22;34299;50.820;4.548;2023-10-19T05:03:25;14.70;99.90
11583;DHT22;34299;50.820;4.548;2023-10-19T05:05:54;14.70;99.90
11583;DHT22;34299;50.820;4.548;2023-10-19T05:08:24;14.70;99.90
11583;DHT22;34299;50.820;4.548;2023-10-19T05:10:54;14.80;99.90
11583;DHT22;34299;50.820;4.548;2023-10-19T05:13:22;14.70;99.90
11583;DHT22;34299;50.820;4.548;2023-10-19T05:15:49;14.70;99.90
11583;DHT22;34299;50.820;4.548;2023-10-19T05:18:15;14.70;99.90
11583;DHT22;34299;50.820;4.548;2023-10-19T05:20:42;14.60;99.90
11583;DHT22;34299;50.820;4.548;2023-10-19T05:23:10;14.60;99.90
11583;DHT22;34299;50.820;4.548;2023-10-19T05:25:39;14.70;99.90
11583;DHT22;34299;50.820;4.548;2023-10-19T05:28:06;14.70;99.90
11583;DHT22;34299;50.820;4.548;2023-10-19T05:30:35;14.60;99.90
11583;DHT22;34299;50.820;4.548;2023-10-19T05:33:02;14.70;99.90
11583;DHT22;34299;50.820;4.548;2023-10-19T05:35:30;14.70;99.90
11583;DHT22;34299;50.820;4.548;2023-10-19T05:38:01;14.60;99.90
11583;DHT22;34299;50.820;4.548;2023-10-19T05:40:28;14.70;99.90
11583;DHT22;34299;50.820;4.548;2023-10-19T05:42:57;14.60;99.90
11583;DHT22;34299;50.820;4.548;2023-10-19T05:45:26;14.60;99.90
11583;DHT22;34299;50.820;4.548;2023-10-19T05:47:55;14.70;99.90
11583;DHT22;34299;50.820;4.548;2023-10-19T05:50:23;14.60;99.90
11583;DHT22;34299;50.820;4.548;2023-10-19T05:52:50;14.60;99.90
11583;DHT22;34299;50.820;4.548;2023-10-19T05:55:18;14.70;99.90
11583;DHT22;34299;50.820;4.548;2023-10-19T05:57:47;14.60;99.90
11583;DHT22;34299;50.820;4.548;2023-10-19T06:00:16;14.60;99.90
11583;DHT22;34299;50.820;4.548;2023-10-19T06:02:48;14.60;99.90
11583;DHT22;34299;50.820;4.548;2023-10-19T06:05:16;14.60;99.90
11583;DHT22;34299;50.820;4.548;2023-10-19T06:07:43;14.60;99.90
11583;DHT22;34299;50.820;4.548;2023-10-19T06:10:12;14.60;99.90
11583;DHT22;34299;50.820;4.548;2023-10-19T06:12:43;14.50;99.90
11583;DHT22;34299;50.820;4.548;2023-10-19T06:15:10;14.50;99.90
11583;DHT22;34299;50.820;4.548;2023-10-19T06:17:40;14.60;99.90
11583;DHT22;34299;50.820;4.548;2023-10-19T06:20:09;14.50;99.90
11583;DHT22;34299;50.820;4.548;2023-10-19T06:22:46;14.50;99.90
11583;DHT22;34299;50.820;4.548;2023-10-19T06:25:16;14.50;99.90
11583;DHT22;34299;50.820;4.548;2023-10-19T06:27:44;14.50;99.90
11583;DHT22;34299;50.820;4.548;2023-10-19T06:30:12;14.50;99.90
11583;DHT22;34299;50.820;4.548;2023-10-19T06:32:45;14.50;99.90
11583;DHT22;34299;50.820;4.548;2023-10-19T06:35:12;14.50;99.90
11583;DHT22;34299;50.820;4.548;2023-10-19T06:37:39;14.50;99.90
11583;DHT22;34299;50.820;4.548;2023-10-19T06:40:07;14.60;99.90
11583;DHT22;34299;50.820;4.548;2023-10-19T06:42:36;14.50;99.90
11583;DHT22;34299;50.820;4.548;2023-10-19T06:45:04;14.40;99.90
11583;DHT22;34299;50.820;4.548;2023-10-19T06:47:32;14.40;99.90
11583;DHT22;34299;50.820;4.548;2023-10-19T06:50:05;14.40;99.90
11583;DHT22;34299;50.820;4.548;2023-10-19T06:52:33;14.50;99.90
11583;DHT22;34299;50.820;4.548;2023-10-19T06:55:02;14.40;99.90
11583;DHT22;34299;50.820;4.548;2023-10-19T06:57:30;14.50;99.90
11583;DHT22;34299;50.820;4.548;2023-10-19T06:59:56;14.40;99.90
11583;DHT22;34299;50.820;4.548;2023-10-19T07:02:23;14.30;99.90
11583;DHT22;34299;50.820;4.548;2023-10-19T07:04:49;14.40;99.90
11583;DHT22;34299;50.820;4.548;2023-10-19T07:07:18;14.50;99.90
11583;DHT22;34299;50.820;4.548;2023-10-19T07:09:44;14.40;99.90
11583;DHT22;34299;50.820;4.548;2023-10-19T07:12:12;14.50;99.90
11583;DHT22;34299;50.820;4.548;2023-10-19T07:14:38;14.70;99.90
11583;DHT22;34299;50.820;4.548;2023-10-19T07:17:06;14.60;99.90
11583;DHT22;34299;50.820;4.548;2023-10-19T07:19:33;14.60;99.90
11583;DHT22;34299;50.820;4.548;2023-10-19T07:22:00;14.60;99.90
11583;DHT22;34299;50.820;4.548;2023-10-19T07:24:31;14.60;99.90
11583;DHT22;34299;50.820;4.548;2023-10-19T07:27:01;14.60;99.90
11583;DHT22;34299;50.820;4.548;2023-10-19T07:29:31;14.50;99.90
11583;DHT22;34299;50.820;4.548;2023-10-19T07:31:59;14.60;99.90
11583;DHT22;34299;50.820;4.548;2023-10-19T07:34:26;14.60;99.90
11583;DHT22;34299;50.820;4.548;2023-10-19T07:36:57;14.60;99.90
11583;DHT22;34299;50.820;4.548;2023-10-19T07:39:25;14.50;99.90
11583;DHT22;34299;50.820;4.548;2023-10-19T07:41:56;14.60;99.90
11583;DHT22;34299;50.820;4.548;2023-10-19T07:44:26;14.60;99.90
11583;DHT22;34299;50.820;4.548;2023-10-19T07:46:55;14.70;99.90
11583;DHT22;34299;50.820;4.548;2023-10-19T07:49:22;14.60;99.90
11583;DHT22;34299;50.820;4.548;2023-10-19T07:51:51;14.80;99.90
11583;DHT22;34299;50.820;4.548;2023-10-19T07:54:18;14.90;99.90
11583;DHT22;34299;50.820;4.548;2023-10-19T07:56:46;15.00;99.90
11583;DHT22;34299;50.820;4.548;2023-10-19T07:59:16;14.90;99.90
11583;DHT22;34299;50.820;4.548;2023-10-19T08:01:43;15.30;99.90
11583;DHT22;34299;50.820;4.548;2023-10-19T08:04:11;15.20;99.90
11583;DHT22;34299;50.820;4.548;2023-10-19T08:06:38;15.30;99.90
11583;DHT22;34299;50.820;4.548;2023-10-19T08:09:05;15.40;99.90
11583;DHT22;34299;50.820;4.548;2023-10-19T08:11:32;15.30;99.90
11583;DHT22;34299;50.820;4.548;2023-10-19T08:13:59;15.40;99.90
11583;DHT22;34299;50.820;4.548;2023-10-19T08:16:28;15.40;99.90
11583;DHT22;34299;50.820;4.548;2023-10-19T08:18:55;15.40;99.90
11583;DHT22;34299;50.820;4.548;2023-10-19T08:21:22;15.60;99.90
11583;DHT22;34299;50.820;4.548;2023-10-19T08:23:49;15.40;99.90
11583;DHT22;34299;50.820;4.548;2023-10-19T08:26:16;15.50;99.90
11583;DHT22;34299;50.820;4.548;2023-10-19T08:28:42;15.60;99.90
11583;DHT22;34299;50.820;4.548;2023-10-19T08:31:10;15.40;99.90
11583;DHT22;34299;50.820;4.548;2023-10-19T08:33:38;15.60;99.90
11583;DHT22;34299;50.820;4.548;2023-10-19T08:36:15;15.60;99.90
11583;DHT22;34299;50.820;4.548;2023-10-19T08:38:45;15.60;99.90
11583;DHT22;34299;50.820;4.548;2023-10-19T08:41:12;15.50;99.90
11583;DHT22;34299;50.820;4.548;2023-10-19T08:43:41;15.70;99.90
11583;DHT22;34299;50.820;4.548;2023-10-19T08:46:08;15.60;99.90
11583;DHT22;34299;50.820;4.548;2023-10-19T08:48:35;15.60;99.90
11583;DHT22;34299;50.820;4.548;2023-10-19T08:51:09;15.60;99.90
11583;DHT22;34299;50.820;4.548;2023-10-19T08:53:37;15.70;99.90
11583;DHT22;34299;50.820;4.548;2023-10-19T08:56:06;15.70;99.90
11583;DHT22;34299;50.820;4.548;2023-10-19T08:58:34;15.70;99.90
11583;DHT22;34299;50.820;4.548;2023-10-19T09:01:01;15.70;99.90
11583;DHT22;34299;50.820;4.548;2023-10-19T09:03:32;15.80;99.90
11583;DHT22;34299;50.820;4.548;2023-10-19T09:06:01;15.90;99.90
11583;DHT22;34299;50.820;4.548;2023-10-19T09:08:29;15.90;99.90
11583;DHT22;34299;50.820;4.548;2023-10-19T09:11:06;16.00;99.90
11583;DHT22;34299;50.820;4.548;2023-10-19T09:13:43;15.80;99.90
11583;DHT22;34299;50.820;4.548;2023-10-19T09:16:13;15.80;99.90
11583;DHT22;34299;50.820;4.548;2023-10-19T09:18:41;16.00;99.90
11583;DHT22;34299;50.820;4.548;2023-10-19T09:21:08;15.90;99.90
11583;DHT22;34299;50.820;4.548;2023-10-19T09:23:38;16.00;99.90
11583;DHT22;34299;50.820;4.548;2023-10-19T09:26:07;16.00;99.90
11583;DHT22;34299;50.820;4.548;2023-10-19T09:28:35;16.10;99.90
11583;DHT22;34299;50.820;4.548;2023-10-19T09:31:03;16.10;99.90
11583;DHT22;34299;50.820;4.548;2023-10-19T09:33:32;15.90;99.90
11583;DHT22;34299;50.820;4.548;2023-10-19T09:36:01;16.10;99.90
11583;DHT22;34299;50.820;4.548;2023-10-19T09:38:30;16.10;99.90
11583;DHT22;34299;50.820;4.548;2023-10-19T09:41:00;16.10;99.90
11583;DHT22;34299;50.820;4.548;2023-10-19T09:43:34;16.30;99.90
11583;DHT22;34299;50.820;4.548;2023-10-19T09:46:04;16.30;99.90
11583;DHT22;34299;50.820;4.548;2023-10-19T09:48:35;16.30;99.90
11583;DHT22;34299;50.820;4.548;2023-10-19T09:51:07;16.20;99.90
11583;DHT22;34299;50.820;4.548;2023-10-19T09:53:36;16.30;99.90
11583;DHT22;34299;50.820;4.548;2023-10-19T09:56:10;16.40;99.90
11583;DHT22;34299;50.820;4.548;2023-10-19T09:58:44;16.50;99.90
11583;DHT22;34299;50.820;4.548;2023-10-19T10:01:11;16.40;99.90
11583;DHT22;34299;50.820;4.548;2023-10-19T10:03:46;16.50;99.90
11583;DHT22;34299;50.820;4.548;2023-10-19T10:06:14;16.60;99.90
11583;DHT22;34299;50.820;4.548;2023-10-19T10:08:43;16.70;99.90
11583;DHT22;34299;50.820;4.548;2023-10-19T10:11:20;16.80;99.90
11583;DHT22;34299;50.820;4.548;2023-10-19T10:13:48;17.00;99.90
11583;DHT22;34299;50.820;4.548;2023-10-19T10:16:18;17.20;99.90
11583;DHT22;34299;50.820;4.548;2023-10-19T10:18:47;17.40;99.90
11583;DHT22;34299;50.820;4.548;2023-10-19T10:21:17;17.10;99.90
11583;DHT22;34299;50.820;4.548;2023-10-19T10:23:47;17.20;99.90
11583;DHT22;34299;50.820;4.548;2023-10-19T10:26:15;17.20;99.90
11583;DHT22;34299;50.820;4.548;2023-10-19T10:28:48;17.40;99.90
11583;DHT22;34299;50.820;4.548;2023-10-19T10:31:19;17.20;99.90
11583;DHT22;34299;50.820;4.548;2023-10-19T10:33:49;17.30;99.90
11583;DHT22;34299;50.820;4.548;2023-10-19T10:36:17;17.40;99.90
11583;DHT22;34299;50.820;4.548;2023-10-19T10:38:45;17.40;99.90
11583;DHT22;34299;50.820;4.548;2023-10-19T10:41:19;17.60;99.90
11583;DHT22;34299;50.820;4.548;2023-10-19T10:43:52;17.60;99.90
11583;DHT22;34299;50.820;4.548;2023-10-19T10:46:23;17.40;99.90
11583;DHT22;34299;50.820;4.548;2023-10-19T10:48:51;17.30;99.90
11583;DHT22;34299;50.820;4.548;2023-10-19T10:51:19;17.20;99.90
11583;DHT22;34299;50.820;4.548;2023-10-19T10:53:48;17.10;99.90
11583;DHT22;34299;50.820;4.548;2023-10-19T10:56:16;17.00;99.90
11583;DHT22;34299;50.820;4.548;2023-10-19T10:58:43;16.90;99.90
11583;DHT22;34299;50.820;4.548;2023-10-19T11:01:11;16.90;99.90
11583;DHT22;34299;50.820;4.548;2023-10-19T11:03:40;16.70;99.90
11583;DHT22;34299;50.820;4.548;2023-10-19T11:06:08;16.70;99.90
11583;DHT22;34299;50.820;4.548;2023-10-19T11:08:36;16.70;99.90
11583;DHT22;34299;50.820;4.548;2023-10-19T11:11:05;16.70;99.90
11583;DHT22;34299;50.820;4.548;2023-10-19T11:13:32;16.90;99.90
11583;DHT22;34299;50.820;4.548;2023-10-19T11:16:04;16.80;99.90
11583;DHT22;34299;50.820;4.548;2023-10-19T11:18:35;16.80;99.90
11583;DHT22;34299;50.820;4.548;2023-10-19T11:21:05;16.90;99.90
11583;DHT22;34299;50.820;4.548;2023-10-19T11:23:40;16.90;99.90
11583;DHT22;34299;50.820;4.548;2023-10-19T11:26:08;17.00;99.90
11583;DHT22;34299;50.820;4.548;2023-10-19T11:28:36;17.20;99.90
11583;DHT22;34299;50.820;4.548;2023-10-19T11:31:13;17.30;99.90
11583;DHT22;34299;50.820;4.548;2023-10-19T11:33:43;17.30;99.90
11583;DHT22;34299;50.820;4.548;2023-10-19T11:36:11;17.00;99.90
11583;DHT22;34299;50.820;4.548;2023-10-19T11:38:42;17.10;99.90
11583;DHT22;34299;50.820;4.548;2023-10-19T11:41:09;17.10;99.90
11583;DHT22;34299;50.820;4.548;2023-10-19T11:43:36;17.00;99.90
11583;DHT22;34299;50.820;4.548;2023-10-19T11:46:03;17.00;99.90
11583;DHT22;34299;50.820;4.548;2023-10-19T11:48:34;17.00;99.90
11583;DHT22;34299;50.820;4.548;2023-10-19T11:51:03;17.10;99.90
11583;DHT22;34299;50.820;4.548;2023-10-19T11:53:34;17.00;99.90
11583;DHT22;34299;50.820;4.548;2023-10-19T11:56:03;17.10;99.90
11583;DHT22;34299;50.820;4.548;2023-10-19T11:58:31;17.00;99.90
11583;DHT22;34299;50.820;4.548;2023-10-19T12:01:00;17.00;99.90
11583;DHT22;34299;50.820;4.548;2023-10-19T12:03:28;17.00;99.90
11583;DHT22;34299;50.820;4.548;2023-10-19T12:05:56;16.80;99.90
11583;DHT22;34299;50.820;4.548;2023-10-19T12:08:24;16.90;99.90
11583;DHT22;34299;50.820;4.548;2023-10-19T12:10:51;16.90;99.90
11583;DHT22;34299;50.820;4.548;2023-10-19T12:13:19;16.70;99.90
11583;DHT22;34299;50.820;4.548;2023-10-19T12:15:46;16.60;99.90
11583;DHT22;34299;50.820;4.548;2023-10-19T12:18:19;16.50;99.90
11583;DHT22;34299;50.820;4.548;2023-10-19T12:20:46;16.50;99.90
11583;DHT22;34299;50.820;4.548;2023-10-19T12:23:14;16.40;99.90
11583;DHT22;34299;50.820;4.548;2023-10-19T12:25:42;16.30;99.90
11583;DHT22;34299;50.820;4.548;2023-10-19T12:28:09;16.30;99.90
11583;DHT22;34299;50.820;4.548;2023-10-19T12:30:41;16.20;99.90
11583;DHT22;34299;50.820;4.548;2023-10-19T12:33:08;16.20;99.90
11583;DHT22;34299;50.820;4.548;2023-10-19T12:35:38;16.20;99.90
11583;DHT22;34299;50.820;4.548;2023-10-19T12:38:19;16.30;99.90
11583;DHT22;34299;50.820;4.548;2023-10-19T12:40:49;16.50;99.90
11583;DHT22;34299;50.820;4.548;2023-10-19T12:43:17;16.70;99.90
11583;DHT22;34299;50.820;4.548;2023-10-19T12:45:45;16.90;99.90
11583;DHT22;34299;50.820;4.548;2023-10-19T12:48:20;17.10;99.90
11583;DHT22;34299;50.820;4.548;2023-10-19T12:50:47;17.50;99.90
11583;DHT22;34299;50.820;4.548;2023-10-19T12:53:14;18.10;99.90
11583;DHT22;34299;50.820;4.548;2023-10-19T12:55:41;18.90;99.90
11583;DHT22;34299;50.820;4.548;2023-10-19T12:58:10;19.90;99.90
11583;DHT22;34299;50.820;4.548;2023-10-19T13:00:37;19.80;99.90
11583;DHT22;34299;50.820;4.548;2023-10-19T13:03:09;20.40;99.90
11583;DHT22;34299;50.820;4.548;2023-10-19T13:05:39;21.40;99.90
11583;DHT22;34299;50.820;4.548;2023-10-19T13:08:08;20.80;99.90
11583;DHT22;34299;50.820;4.548;2023-10-19T13:10:35;20.50;99.90
11583;DHT22;34299;50.820;4.548;2023-10-19T13:13:06;20.70;99.90
11583;DHT22;34299;50.820;4.548;2023-10-19T13:15:36;21.60;99.90
11583;DHT22;34299;50.820;4.548;2023-10-19T13:18:05;21.10;99.90
11583;DHT22;34299;50.820;4.548;2023-10-19T13:20:33;20.90;99.90
11583;DHT22;34299;50.820;4.548;2023-10-19T13:23:00;21.30;99.90
11583;DHT22;34299;50.820;4.548;2023-10-19T13:25:30;21.50;99.90
11583;DHT22;34299;50.820;4.548;2023-10-19T13:28:08;21.30;99.90
11583;DHT22;34299;50.820;4.548;2023-10-19T13:30:45;21.50;99.90
11583;DHT22;34299;50.820;4.548;2023-10-19T13:33:13;21.20;99.90
11583;DHT22;34299;50.820;4.548;2023-10-19T13:35:42;20.20;99.90
11583;DHT22;34299;50.820;4.548;2023-10-19T13:38:10;20.80;99.90
11583;DHT22;34299;50.820;4.548;2023-10-19T13:40:38;20.50;99.90
11583;DHT22;34299;50.820;4.548;2023-10-19T13:43:07;20.50;99.90
11583;DHT22;34299;50.820;4.548;2023-10-19T13:45:35;20.10;99.90
11583;DHT22;34299;50.820;4.548;2023-10-19T13:48:05;20.10;99.90
11583;DHT22;34299;50.820;4.548;2023-10-19T13:50:33;19.20;99.90
11583;DHT22;34299;50.820;4.548;2023-10-19T13:53:01;18.90;99.90
11583;DHT22;34299;50.820;4.548;2023-10-19T13:55:31;19.20;99.90
11583;DHT22;34299;50.820;4.548;2023-10-19T13:57:59;18.50;99.90
11583;DHT22;34299;50.820;4.548;2023-10-19T14:00:27;18.10;99.90
11583;DHT22;34299;50.820;4.548;2023-10-19T14:03:01;18.10;99.90
11583;DHT22;34299;50.820;4.548;2023-10-19T14:05:36;18.40;99.90
11583;DHT22;34299;50.820;4.548;2023-10-19T14:08:04;18.60;99.90
11583;DHT22;34299;50.820;4.548;2023-10-19T14:10:31;19.30;99.90
11583;DHT22;34299;50.820;4.548;2023-10-19T14:12:58;20.10;99.90
11583;DHT22;34299;50.820;4.548;2023-10-19T14:15:25;20.40;99.90
11583;DHT22;34299;50.820;4.548;2023-10-19T14:17:54;19.80;99.90
11583;DHT22;34299;50.820;4.548;2023-10-19T14:20:22;20.10;99.90
11583;DHT22;34299;50.820;4.548;2023-10-19T14:22:51;20.60;99.90
11583;DHT22;34299;50.820;4.548;2023-10-19T14:25:19;21.10;99.90
11583;DHT22;34299;50.820;4.548;2023-10-19T14:27:49;20.70;99.90
11583;DHT22;34299;50.820;4.548;2023-10-19T14:30:17;21.60;99.90
11583;DHT22;34299;50.820;4.548;2023-10-19T14:32:45;21.70;99.90
11583;DHT22;34299;50.820;4.548;2023-10-19T14:35:14;21.00;99.90
11583;DHT22;34299;50.820;4.548;2023-10-19T14:37:43;20.80;99.90
11583;DHT22;34299;50.820;4.548;2023-10-19T14:40:13;21.40;99.90
11583;DHT22;34299;50.820;4.548;2023-10-19T14:42:40;22.40;99.90
11583;DHT22;34299;50.820;4.548;2023-10-19T14:45:09;22.00;99.90
11583;DHT22;34299;50.820;4.548;2023-10-19T14:47:37;21.90;99.90
11583;DHT22;34299;50.820;4.548;2023-10-19T14:50:07;22.20;99.90
11583;DHT22;34299;50.820;4.548;2023-10-19T14:52:36;23.90;99.90
11583;DHT22;34299;50.820;4.548;2023-10-19T14:55:04;23.50;99.90
11583;DHT22;34299;50.820;4.548;2023-10-19T14:57:34;22.00;99.90
11583;DHT22;34299;50.820;4.548;2023-10-19T15:00:01;20.40;99.90
11583;DHT22;34299;50.820;4.548;2023-10-19T15:02:40;20.10;99.90
11583;DHT22;34299;50.820;4.548;2023-10-19T15:05:08;19.40;99.90
11583;DHT22;34299;50.820;4.548;2023-10-19T15:07:40;19.30;99.90
11583;DHT22;34299;50.820;4.548;2023-10-19T15:10:09;19.90;99.90
11583;DHT22;34299;50.820;4.548;2023-10-19T15:12:39;20.10;99.90
11583;DHT22;34299;50.820;4.548;2023-10-19T15:15:07;21.20;99.90
11583;DHT22;34299;50.820;4.548;2023-10-19T15:17:34;20.10;99.90
11583;DHT22;34299;50.820;4.548;2023-10-19T15:20:04;19.60;99.90
11583;DHT22;34299;50.820;4.548;2023-10-19T15:22:31;19.40;99.90
11583;DHT22;34299;50.820;4.548;2023-10-19T15:24:58;19.30;99.90
11583;DHT22;34299;50.820;4.548;2023-10-19T15:27:26;18.80;99.90
11583;DHT22;34299;50.820;4.548;2023-10-19T15:29:56;18.70;99.90
11583;DHT22;34299;50.820;4.548;2023-10-19T15:32:23;18.50;99.90
11583;DHT22;34299;50.820;4.548;2023-10-19T15:34:51;18.60;99.90
11583;DHT22;34299;50.820;4.548;2023-10-19T15:37:18;18.70;99.90
11583;DHT22;34299;50.820;4.548;2023-10-19T15:39:45;18.30;99.90
11583;DHT22;34299;50.820;4.548;2023-10-19T15:42:12;18.00;99.90